Time;durP1;ratioP1;P1;durP2;ratioP2;P2;SDS_P1;SDS_P2;PMS_P1;PMS_P2;Temp;Humidity;BMP_temperature;BMP_pressure;BME280_temperature;BME280_humidity;BME280_pressure;Samples;Min_cycle;Max_cycle;Signal;HPM_P1;HPM_P2
2023/09/28 00:00:47;;;;;;;6.60;2.22;;;;;;;;;;5034810;28;20046;-78
2023/09/28 00:02:49;;;;;;;8.02;2.88;;;;;;;;;;5025872;28;20049;-73
2023/09/28 00:05:19;;;;;;;6.32;2.47;;;;;;;;;;5031688;28;20050;-74
2023/09/28 00:07:47;;;;;;;3.92;2.42;;;;;;;;;;5038220;28;20049;-72
2023/09/28 00:10:15;;;;;;;6.30;2.45;;;;;;;;;;5019060;28;20049;-79
2023/09/28 00:12:46;;;;;;;7.55;2.40;;;;;;;;;;5033754;28;20045;-78
2023/09/28 00:15:13;;;;;;;11.45;3.15;;;;;;;;;;5034504;28;20056;-78
2023/09/28 00:17:40;;;;;;;4.85;2.33;;;;;;;;;;5039418;28;20333;-77
2023/09/28 00:20:17;;;;;;;7.28;2.70;;;;;;;;;;5036392;28;20095;-79
2023/09/28 00:23:03;;;;;;;4.60;2.33;;;;;;;;;;5031653;28;20048;-78
2023/09/28 00:25:30;;;;;;;7.38;2.35;;;;;;;;;;5031520;28;20045;-77
2023/09/28 00:27:57;;;;;;;5.45;2.47;;;;;;;;;;5031154;28;20054;-78
2023/09/28 00:30:26;;;;;;;6.20;2.40;;;;;;;;;;5031445;28;20452;-77
2023/09/28 00:32:55;;;;;;;7.03;2.00;;;;;;;;;;5032746;28;20045;-79
2023/09/28 00:35:23;;;;;;;4.13;2.20;;;;;;;;;;5033667;28;20061;-79
2023/09/28 00:37:49;;;;;;;5.32;2.22;;;;;;;;;;5032346;28;20053;-79
2023/09/28 00:40:18;;;;;;;4.95;2.03;;;;;;;;;;5031708;28;20125;-79
2023/09/28 00:42:47;;;;;;;3.88;2.03;;;;;;;;;;5033361;28;20377;-79
2023/09/28 00:45:14;;;;;;;4.53;2.03;;;;;;;;;;5035653;28;20089;-79
2023/09/28 00:47:42;;;;;;;4.30;2.25;;;;;;;;;;5031111;28;20045;-77
2023/09/28 00:50:11;;;;;;;7.47;2.40;;;;;;;;;;5031217;28;20058;-79
2023/09/28 00:52:49;;;;;;;4.13;2.20;;;;;;;;;;4995600;28;20388;-77
2023/09/28 00:55:19;;;;;;;5.95;2.30;;;;;;;;;;4992083;28;20089;-79
2023/09/28 00:57:47;;;;;;;5.10;2.13;;;;;;;;;;4991959;28;20149;-79
2023/09/28 01:00:18;;;;;;;6.70;2.70;;;;;;;;;;4991005;28;20089;-79
2023/09/28 01:02:52;;;;;;;7.57;2.35;;;;;;;;;;4992242;28;20046;-79
2023/09/28 01:05:26;;;;;;;5.13;2.40;;;;;;;;;;4991999;28;20054;-78
2023/09/28 01:07:55;;;;;;;3.72;2.42;;;;;;;;;;4992209;28;20138;-77
2023/09/28 01:10:25;;;;;;;8.38;2.67;;;;;;;;;;4995710;28;20043;-78
2023/09/28 01:12:52;;;;;;;5.13;2.47;;;;;;;;;;4995851;28;20050;-78
2023/09/28 01:15:19;;;;;;;6.85;2.33;;;;;;;;;;4995311;28;20622;-78
2023/09/28 01:17:46;;;;;;;5.43;2.75;;;;;;;;;;4994642;28;20046;-78
2023/09/28 01:20:35;;;;;;;6.00;2.67;;;;;;;;;;4992814;28;20141;-78
2023/09/28 01:23:06;;;;;;;4.45;2.33;;;;;;;;;;4993668;28;20582;-75
2023/09/28 01:25:33;;;;;;;6.70;2.80;;;;;;;;;;4995127;28;20322;-79
2023/09/28 01:28:00;;;;;;;6.82;2.58;;;;;;;;;;4996775;28;20043;-78
2023/09/28 01:30:27;;;;;;;4.10;2.40;;;;;;;;;;4995764;28;20050;-79
2023/09/28 01:32:54;;;;;;;5.38;2.60;;;;;;;;;;4995713;28;20047;-79
2023/09/28 01:35:21;;;;;;;5.60;2.42;;;;;;;;;;4994292;28;20043;-78
2023/09/28 01:38:14;;;;;;;6.05;2.80;;;;;;;;;;4996362;28;20051;-75
2023/09/28 01:40:45;;;;;;;5.55;2.42;;;;;;;;;;4993349;28;20463;-77
2023/09/28 01:43:12;;;;;;;8.15;2.83;;;;;;;;;;4995029;28;20666;-79
2023/09/28 01:45:38;;;;;;;5.90;2.80;;;;;;;;;;4994765;28;20076;-78
2023/09/28 01:48:06;;;;;;;7.45;2.40;;;;;;;;;;4993020;28;20050;-78
2023/09/28 01:50:33;;;;;;;3.70;2.08;;;;;;;;;;5001042;28;20052;-77
2023/09/28 01:52:59;;;;;;;6.03;2.78;;;;;;;;;;5036493;28;20230;-79
2023/09/28 01:55:26;;;;;;;4.28;2.45;;;;;;;;;;5035201;28;20049;-78
2023/09/28 01:57:53;;;;;;;5.88;2.55;;;;;;;;;;5036748;28;20041;-78
2023/09/28 02:00:25;;;;;;;6.45;2.50;;;;;;;;;;5034160;28;20055;-78
2023/09/28 02:02:54;;;;;;;5.63;2.25;;;;;;;;;;5032904;28;20042;-77
2023/09/28 02:05:21;;;;;;;4.70;2.13;;;;;;;;;;5030341;28;20498;-77
2023/09/28 02:07:49;;;;;;;6.03;2.45;;;;;;;;;;5034322;28;20159;-69
2023/09/28 02:10:16;;;;;;;5.50;2.40;;;;;;;;;;5011813;28;20061;-79
2023/09/28 02:12:44;;;;;;;5.97;2.60;;;;;;;;;;5036395;28;20113;-78
2023/09/28 02:15:14;;;;;;;4.63;2.45;;;;;;;;;;5030582;28;20050;-79
2023/09/28 02:17:43;;;;;;;5.78;2.75;;;;;;;;;;5029932;28;20045;-76
2023/09/28 02:20:16;;;;;;;6.40;2.60;;;;;;;;;;5029358;28;20128;-78
2023/09/28 02:22:44;;;;;;;7.22;2.63;;;;;;;;;;5029714;28;20050;-79
2023/09/28 02:25:17;;;;;;;6.57;2.80;;;;;;;;;;5029346;28;20049;-79
2023/09/28 02:27:46;;;;;;;6.88;2.35;;;;;;;;;;5029893;28;20055;-78
2023/09/28 02:30:19;;;;;;;6.88;2.60;;;;;;;;;;5029294;28;20050;-77
2023/09/28 02:32:47;;;;;;;10.63;2.95;;;;;;;;;;5029189;28;20630;-79
2023/09/28 02:35:16;;;;;;;6.45;2.58;;;;;;;;;;5032230;28;20048;-77
2023/09/28 02:37:44;;;;;;;6.30;3.00;;;;;;;;;;5031637;28;20049;-78
2023/09/28 02:40:13;;;;;;;4.25;2.30;;;;;;;;;;5028884;28;20046;-78
2023/09/28 02:42:41;;;;;;;6.18;2.33;;;;;;;;;;5029764;28;20049;-79
2023/09/28 02:45:12;;;;;;;6.78;2.80;;;;;;;;;;5034961;28;20116;-77
2023/09/28 02:47:44;;;;;;;7.13;2.85;;;;;;;;;;5029191;28;20049;-79
2023/09/28 02:50:13;;;;;;;7.07;2.90;;;;;;;;;;5028649;28;20084;-79
2023/09/28 02:52:41;;;;;;;7.32;2.50;;;;;;;;;;5029607;28;20081;-77
2023/09/28 02:55:13;;;;;;;4.68;2.70;;;;;;;;;;5031786;28;20494;-78
2023/09/28 02:57:40;;;;;;;8.75;2.83;;;;;;;;;;5033484;28;20057;-78
2023/09/28 03:00:28;;;;;;;6.47;2.53;;;;;;;;;;5038212;28;20091;-79
2023/09/28 03:02:58;;;;;;;7.25;2.88;;;;;;;;;;5029648;28;20041;-76
2023/09/28 03:05:26;;;;;;;4.97;2.45;;;;;;;;;;5029079;28;20049;-79
2023/09/28 03:07:53;;;;;;;5.05;2.40;;;;;;;;;;5029134;28;20046;-79
2023/09/28 03:10:20;;;;;;;5.57;2.30;;;;;;;;;;5028673;28;20418;-79
2023/09/28 03:12:49;;;;;;;4.93;2.40;;;;;;;;;;5028878;28;20046;-79
2023/09/28 03:15:16;;;;;;;12.55;3.03;;;;;;;;;;5028747;28;20049;-78
2023/09/28 03:17:46;;;;;;;5.78;2.45;;;;;;;;;;5029041;28;20075;-79
2023/09/28 03:20:22;;;;;;;4.95;2.42;;;;;;;;;;5028930;28;20128;-78
2023/09/28 03:22:49;;;;;;;5.82;2.95;;;;;;;;;;5029177;28;20138;-71
2023/09/28 03:25:22;;;;;;;6.15;2.45;;;;;;;;;;5031521;28;20045;-78
2023/09/28 03:27:51;;;;;;;6.30;2.63;;;;;;;;;;5032624;28;20046;-79
2023/09/28 03:30:20;;;;;;;6.93;2.45;;;;;;;;;;5032521;28;20152;-75
2023/09/28 03:32:47;;;;;;;6.72;2.47;;;;;;;;;;5032712;28;20693;-77
2023/09/28 03:35:16;;;;;;;4.28;2.40;;;;;;;;;;5032548;28;20053;-76
2023/09/28 03:37:44;;;;;;;7.88;2.45;;;;;;;;;;5032522;28;20180;-76
2023/09/28 03:40:13;;;;;;;8.60;2.80;;;;;;;;;;5032217;28;20785;-76
2023/09/28 03:42:41;;;;;;;4.32;2.42;;;;;;;;;;5032657;28;20053;-77
2023/09/28 03:45:10;;;;;;;6.28;2.35;;;;;;;;;;5032073;28;20049;-79
2023/09/28 03:47:42;;;;;;;5.57;2.65;;;;;;;;;;5032017;28;20055;-78
2023/09/28 03:50:12;;;;;;;4.40;2.03;;;;;;;;;;5031920;28;20045;-79
2023/09/28 03:52:41;;;;;;;5.88;2.45;;;;;;;;;;5033403;28;20395;-78
2023/09/28 03:55:12;;;;;;;4.82;2.55;;;;;;;;;;5031868;28;20119;-78
2023/09/28 03:57:39;;;;;;;5.75;2.28;;;;;;;;;;5032041;28;20049;-79
2023/09/28 04:00:12;;;;;;;6.68;2.50;;;;;;;;;;5032035;28;20045;-78
2023/09/28 04:02:44;;;;;;;5.53;2.53;;;;;;;;;;5031985;28;20045;-78
2023/09/28 04:05:17;;;;;;;6.90;2.53;;;;;;;;;;5031706;28;20096;-79
2023/09/28 04:07:44;;;;;;;4.50;2.40;;;;;;;;;;5031998;28;20057;-79
2023/09/28 04:10:11;;;;;;;4.88;2.50;;;;;;;;;;5031954;28;20050;-78
2023/09/28 04:12:38;;;;;;;5.80;2.58;;;;;;;;;;5031968;28;20053;-78
2023/09/28 04:15:07;;;;;;;6.43;2.60;;;;;;;;;;5031730;28;20053;-78
2023/09/28 04:17:34;;;;;;;4.10;2.30;;;;;;;;;;5031571;28;20132;-77
2023/09/28 04:20:04;;;;;;;7.07;2.40;;;;;;;;;;5032013;28;20041;-78
2023/09/28 04:22:32;;;;;;;4.78;2.33;;;;;;;;;;5031974;28;20504;-77
2023/09/28 04:24:59;;;;;;;5.82;2.45;;;;;;;;;;5031435;28;20080;-78
2023/09/28 04:27:26;;;;;;;6.18;2.50;;;;;;;;;;5031496;28;20045;-77
2023/09/28 04:29:54;;;;;;;6.85;2.83;;;;;;;;;;5031522;28;20049;-79
2023/09/28 04:32:21;;;;;;;6.40;2.50;;;;;;;;;;5032578;28;20054;-78
2023/09/28 04:34:48;;;;;;;6.65;2.45;;;;;;;;;;5033917;28;20528;-74
2023/09/28 04:37:16;;;;;;;6.82;2.55;;;;;;;;;;5031186;28;20520;-75
2023/09/28 04:39:44;;;;;;;6.15;2.80;;;;;;;;;;5031533;28;20137;-78
2023/09/28 04:42:12;;;;;;;5.53;2.50;;;;;;;;;;5031389;28;20053;-78
2023/09/28 04:44:43;;;;;;;6.50;2.45;;;;;;;;;;5031422;28;20045;-76
2023/09/28 04:47:11;;;;;;;4.28;2.38;;;;;;;;;;5031060;28;20057;-75
2023/09/28 04:49:41;;;;;;;7.45;2.92;;;;;;;;;;5031265;28;20122;-78
2023/09/28 04:52:10;;;;;;;4.63;2.63;;;;;;;;;;5031020;28;20049;-76
2023/09/28 04:54:37;;;;;;;5.30;2.33;;;;;;;;;;5031083;28;20104;-77
2023/09/28 04:57:05;;;;;;;6.53;2.80;;;;;;;;;;5031012;28;20128;-77
2023/09/28 04:59:38;;;;;;;5.32;2.58;;;;;;;;;;5032867;28;20096;-78
2023/09/28 05:02:06;;;;;;;7.18;2.50;;;;;;;;;;5031067;28;20052;-79
2023/09/28 05:04:33;;;;;;;7.30;2.55;;;;;;;;;;5030638;28;20497;-77
2023/09/28 05:07:00;;;;;;;4.65;2.42;;;;;;;;;;5030751;28;20413;-78
2023/09/28 05:09:27;;;;;;;4.70;2.35;;;;;;;;;;5030526;28;20540;-74
2023/09/28 05:11:56;;;;;;;4.57;2.65;;;;;;;;;;5030795;28;20045;-79
2023/09/28 05:14:24;;;;;;;5.93;2.38;;;;;;;;;;5030452;28;20128;-79
2023/09/28 05:16:52;;;;;;;7.22;3.22;;;;;;;;;;5030443;28;20539;-79
2023/09/28 05:19:18;;;;;;;5.45;2.70;;;;;;;;;;5030715;28;20136;-69
2023/09/28 05:21:45;;;;;;;7.50;2.75;;;;;;;;;;5030484;28;20111;-78
2023/09/28 05:24:12;;;;;;;4.53;2.38;;;;;;;;;;5030508;28;20049;-78
2023/09/28 05:26:39;;;;;;;6.13;2.45;;;;;;;;;;5030687;28;20044;-76
2023/09/28 05:29:06;;;;;;;5.10;2.55;;;;;;;;;;5030379;28;20506;-77
2023/09/28 05:31:33;;;;;;;7.40;2.58;;;;;;;;;;5030343;28;20046;-76
2023/09/28 05:34:00;;;;;;;5.13;2.22;;;;;;;;;;5030224;28;20076;-74
2023/09/28 05:36:27;;;;;;;5.70;2.38;;;;;;;;;;5029838;28;20053;-74
2023/09/28 05:38:54;;;;;;;6.35;2.63;;;;;;;;;;5012923;28;20095;-76
2023/09/28 05:41:21;;;;;;;8.98;2.60;;;;;;;;;;5029908;28;20053;-77
2023/09/28 05:43:47;;;;;;;5.75;2.47;;;;;;;;;;5030389;28;20069;-79
2023/09/28 05:46:14;;;;;;;4.53;2.60;;;;;;;;;;5029445;28;20041;-69
2023/09/28 05:48:41;;;;;;;3.75;2.28;;;;;;;;;;5029805;28;20053;-80
2023/09/28 05:51:08;;;;;;;7.38;2.60;;;;;;;;;;5029499;28;20430;-76
2023/09/28 05:53:34;;;;;;;5.25;2.33;;;;;;;;;;5029978;28;20049;-77
2023/09/28 05:56:03;;;;;;;6.00;2.67;;;;;;;;;;5030410;28;20076;-76
2023/09/28 05:58:29;;;;;;;6.95;2.70;;;;;;;;;;5030167;28;20057;-78
2023/09/28 06:00:57;;;;;;;5.95;2.55;;;;;;;;;;5029893;28;20536;-76
2023/09/28 06:03:24;;;;;;;6.00;2.60;;;;;;;;;;5029814;28;20042;-73
2023/09/28 06:05:51;;;;;;;5.00;2.67;;;;;;;;;;5029994;28;20041;-74
2023/09/28 06:08:18;;;;;;;5.32;2.50;;;;;;;;;;5029500;28;20056;-79
2023/09/28 06:10:48;;;;;;;6.13;2.50;;;;;;;;;;5029769;28;20107;-75
2023/09/28 06:13:35;;;;;;;7.95;2.45;;;;;;;;;;5029541;28;20578;-75
2023/09/28 06:16:01;;;;;;;5.03;2.50;;;;;;;;;;5029579;28;20052;-71
2023/09/28 06:18:28;;;;;;;6.13;2.58;;;;;;;;;;5029364;28;20053;-74
2023/09/28 06:20:55;;;;;;;5.85;2.78;;;;;;;;;;5030167;28;20056;-78
2023/09/28 06:23:21;;;;;;;6.53;2.47;;;;;;;;;;5029629;28;20073;-75
2023/09/28 06:25:51;;;;;;;8.52;2.70;;;;;;;;;;5029665;28;20056;-78
2023/09/28 06:28:17;;;;;;;5.50;2.30;;;;;;;;;;5028919;28;20087;-78
2023/09/28 06:30:45;;;;;;;8.38;2.53;;;;;;;;;;5029973;28;20644;-75
2023/09/28 06:33:11;;;;;;;6.10;2.58;;;;;;;;;;5011826;28;20049;-72
2023/09/28 06:35:38;;;;;;;5.90;2.63;;;;;;;;;;5029647;28;20085;-79
2023/09/28 06:38:05;;;;;;;6.47;2.75;;;;;;;;;;5029003;28;20042;-75
2023/09/28 06:40:32;;;;;;;7.43;2.53;;;;;;;;;;5029285;28;20049;-79
2023/09/28 06:42:58;;;;;;;6.90;2.60;;;;;;;;;;5028872;28;20053;-74
2023/09/28 06:45:25;;;;;;;9.52;3.15;;;;;;;;;;5037887;28;20112;-77
2023/09/28 06:47:54;;;;;;;5.68;2.70;;;;;;;;;;5040255;28;20112;-75
2023/09/28 06:50:39;;;;;;;4.57;2.38;;;;;;;;;;5040629;28;20064;-76
2023/09/28 06:53:07;;;;;;;5.90;2.80;;;;;;;;;;5040093;28;20420;-74
2023/09/28 06:55:35;;;;;;;6.15;2.85;;;;;;;;;;5040742;28;20084;-74
2023/09/28 06:58:06;;;;;;;7.47;2.80;;;;;;;;;;5041212;28;20240;-75
2023/09/28 07:00:32;;;;;;;9.57;2.53;;;;;;;;;;5044094;28;20041;-76
2023/09/28 07:03:02;;;;;;;7.53;2.80;;;;;;;;;;5044193;28;20045;-75
2023/09/28 07:05:28;;;;;;;7.20;3.05;;;;;;;;;;5044807;28;20116;-74
2023/09/28 07:07:55;;;;;;;8.18;3.13;;;;;;;;;;5044153;28;20485;-75
2023/09/28 07:10:22;;;;;;;8.25;3.33;;;;;;;;;;5042241;28;20037;-76
2023/09/28 07:12:48;;;;;;;10.25;3.58;;;;;;;;;;5044414;28;20045;-75
2023/09/28 07:15:15;;;;;;;7.43;2.90;;;;;;;;;;5043995;28;20041;-76
2023/09/28 07:17:42;;;;;;;5.80;3.03;;;;;;;;;;5043938;28;20052;-74
2023/09/28 07:20:09;;;;;;;7.75;3.30;;;;;;;;;;5044422;28;20062;-75
2023/09/28 07:22:36;;;;;;;8.13;2.70;;;;;;;;;;5044060;28;20087;-76
2023/09/28 07:25:03;;;;;;;8.13;2.95;;;;;;;;;;5044255;28;20108;-74
2023/09/28 07:27:33;;;;;;;12.18;2.95;;;;;;;;;;5044022;28;20055;-74
2023/09/28 07:30:05;;;;;;;9.18;3.17;;;;;;;;;;5044266;28;20052;-76
2023/09/28 07:32:31;;;;;;;6.90;2.78;;;;;;;;;;5043695;28;20274;-76
2023/09/28 07:34:58;;;;;;;5.05;2.72;;;;;;;;;;5042899;28;20048;-75
2023/09/28 07:37:25;;;;;;;9.80;2.55;;;;;;;;;;5042597;28;20048;-76
2023/09/28 07:39:52;;;;;;;8.40;2.90;;;;;;;;;;5043395;28;20045;-76
2023/09/28 07:42:19;;;;;;;6.30;2.50;;;;;;;;;;5043351;28;20162;-76
2023/09/28 07:44:49;;;;;;;7.18;2.92;;;;;;;;;;5041396;28;20073;-77
2023/09/28 07:47:17;;;;;;;7.07;2.83;;;;;;;;;;5042081;28;20084;-77
2023/09/28 07:49:43;;;;;;;8.20;2.60;;;;;;;;;;5042229;28;20050;-78
2023/09/28 07:52:10;;;;;;;8.48;2.85;;;;;;;;;;5042845;28;20057;-76
2023/09/28 07:54:37;;;;;;;9.32;2.83;;;;;;;;;;5038882;28;20056;-78
2023/09/28 07:57:05;;;;;;;6.95;2.70;;;;;;;;;;5018521;28;20233;-77
2023/09/28 07:59:32;;;;;;;7.43;2.50;;;;;;;;;;5041005;28;20073;-79
2023/09/28 08:02:02;;;;;;;6.55;2.78;;;;;;;;;;5026139;28;20045;-78
2023/09/28 08:04:30;;;;;;;8.90;2.90;;;;;;;;;;5041985;28;20424;-78
2023/09/28 08:06:57;;;;;;;9.82;2.72;;;;;;;;;;5042183;28;20048;-78
2023/09/28 08:09:25;;;;;;;7.60;3.25;;;;;;;;;;5039084;28;20051;-76
2023/09/28 08:11:52;;;;;;;6.80;2.92;;;;;;;;;;5042493;28;20045;-79
2023/09/28 08:14:21;;;;;;;9.02;2.88;;;;;;;;;;5037291;28;20056;-76
2023/09/28 08:16:49;;;;;;;5.55;2.92;;;;;;;;;;5042039;28;20049;-79
2023/09/28 08:19:16;;;;;;;8.52;2.70;;;;;;;;;;5039729;28;20049;-78
2023/09/28 08:21:43;;;;;;;6.10;2.90;;;;;;;;;;5043460;28;20113;-78
2023/09/28 08:24:10;;;;;;;6.32;3.10;;;;;;;;;;5043197;28;20045;-78
2023/09/28 08:26:37;;;;;;;4.60;2.38;;;;;;;;;;5042539;28;20064;-79
2023/09/28 08:29:04;;;;;;;5.93;2.78;;;;;;;;;;5042838;28;20061;-79
2023/09/28 08:31:31;;;;;;;7.25;2.58;;;;;;;;;;5042877;28;20045;-79
2023/09/28 08:33:59;;;;;;;6.72;2.60;;;;;;;;;;5042792;28;20325;-77
2023/09/28 08:36:27;;;;;;;5.93;2.67;;;;;;;;;;5042328;28;20053;-78
2023/09/28 08:38:54;;;;;;;8.52;2.85;;;;;;;;;;5042344;28;20041;-78
2023/09/28 08:41:29;;;;;;;7.03;2.53;;;;;;;;;;5041700;28;20048;-79
2023/09/28 08:44:04;;;;;;;7.03;2.63;;;;;;;;;;5042596;28;20068;-79
2023/09/28 08:46:37;;;;;;;10.50;2.72;;;;;;;;;;5042706;28;20208;-78
2023/09/28 08:49:14;;;;;;;6.53;2.30;;;;;;;;;;5025732;28;20099;-79
2023/09/28 08:51:44;;;;;;;7.18;2.70;;;;;;;;;;5040900;28;20116;-79
2023/09/28 08:54:12;;;;;;;7.23;2.80;;;;;;;;;;5041128;28;20129;-77
2023/09/28 08:56:40;;;;;;;6.40;2.50;;;;;;;;;;5021748;28;20051;-80
2023/09/28 08:59:09;;;;;;;12.23;2.97;;;;;;;;;;5042530;28;20235;-79
2023/09/28 09:01:37;;;;;;;8.52;2.97;;;;;;;;;;5042359;28;20052;-79
2023/09/28 09:04:05;;;;;;;5.82;2.55;;;;;;;;;;5042520;28;20168;-79
2023/09/28 09:06:32;;;;;;;6.13;2.88;;;;;;;;;;5042122;28;20073;-78
2023/09/28 09:09:06;;;;;;;6.80;2.90;;;;;;;;;;5042019;28;20065;-77
2023/09/28 09:11:37;;;;;;;6.40;2.97;;;;;;;;;;5041168;28;20270;-79
2023/09/28 09:14:04;;;;;;;7.72;3.10;;;;;;;;;;5039008;28;20215;-80
2023/09/28 09:16:30;;;;;;;7.50;3.05;;;;;;;;;;5039092;28;20046;-79
2023/09/28 09:18:58;;;;;;;10.60;2.83;;;;;;;;;;5040732;28;20105;-80
2023/09/28 09:21:25;;;;;;;6.95;3.20;;;;;;;;;;5038446;28;20042;-79
2023/09/28 09:24:05;;;;;;;7.55;3.00;;;;;;;;;;5038786;28;20057;-79
2023/09/28 09:26:43;;;;;;;7.88;2.58;;;;;;;;;;5022281;28;20041;-78
2023/09/28 09:29:11;;;;;;;7.05;2.70;;;;;;;;;;5041656;28;20077;-78
2023/09/28 09:31:43;;;;;;;6.30;3.00;;;;;;;;;;5024413;28;20428;-79
2023/09/28 09:34:17;;;;;;;5.72;2.83;;;;;;;;;;5041764;28;20296;-79
2023/09/28 09:37:11;;;;;;;5.25;2.80;;;;;;;;;;5041824;28;20045;-77
2023/09/28 09:39:38;;;;;;;7.32;3.28;;;;;;;;;;5039376;28;20045;-80
2023/09/28 09:42:05;;;;;;;7.13;2.80;;;;;;;;;;5041029;28;20046;-77
2023/09/28 09:44:38;;;;;;;7.82;3.08;;;;;;;;;;5181185;27;20106;-78
2023/09/28 09:47:04;;;;;;;6.30;2.53;;;;;;;;;;5159148;27;20065;-75
2023/09/28 09:49:33;;;;;;;6.82;2.83;;;;;;;;;;5158659;27;20054;-78
2023/09/28 09:52:03;;;;;;;7.03;2.60;;;;;;;;;;5157452;27;20200;-78
2023/09/28 09:54:35;;;;;;;6.25;2.55;;;;;;;;;;5159236;27;20318;-78
2023/09/28 09:57:04;;;;;;;8.98;3.00;;;;;;;;;;5157987;27;20043;-77
2023/09/28 09:59:32;;;;;;;7.68;2.47;;;;;;;;;;5159864;27;20053;-75
2023/09/28 10:02:03;;;;;;;6.38;2.63;;;;;;;;;;5160120;27;20096;-79
2023/09/28 10:04:31;;;;;;;7.03;2.83;;;;;;;;;;5156971;27;20053;-78
2023/09/28 10:07:00;;;;;;;5.55;2.65;;;;;;;;;;5159728;27;20042;-78
2023/09/28 10:09:27;;;;;;;8.35;2.80;;;;;;;;;;5159422;27;20043;-77
2023/09/28 10:11:55;;;;;;;5.95;2.58;;;;;;;;;;5132635;27;20088;-79
2023/09/28 10:14:22;;;;;;;6.22;3.00;;;;;;;;;;5145029;27;20107;-78
2023/09/28 10:16:52;;;;;;;4.53;2.70;;;;;;;;;;5154723;27;20331;-84
2023/09/28 10:19:22;;;;;;;6.57;3.05;;;;;;;;;;5157366;27;20242;-78
2023/09/28 10:21:51;;;;;;;7.05;2.60;;;;;;;;;;5138887;28;20107;-79
2023/09/28 10:24:28;;;;;;;8.10;2.45;;;;;;;;;;5138259;28;20051;-77
2023/09/28 10:26:54;;;;;;;6.00;2.78;;;;;;;;;;5144714;27;20308;-80
2023/09/28 10:29:32;;;;;;;7.57;3.00;;;;;;;;;;5148456;27;20039;-81
2023/09/28 10:32:01;;;;;;;8.00;2.67;;;;;;;;;;5159123;27;20376;-81
2023/09/28 10:34:29;;;;;;;6.25;2.65;;;;;;;;;;5147372;27;20047;-79
2023/09/28 10:37:05;;;;;;;5.82;2.55;;;;;;;;;;5138399;28;20067;-82
2023/09/28 10:39:34;;;;;;;5.95;2.83;;;;;;;;;;5138180;28;20043;-80
2023/09/28 10:42:06;;;;;;;5.03;2.40;;;;;;;;;;5136801;28;20070;-80
2023/09/28 10:44:32;;;;;;;4.88;2.63;;;;;;;;;;5138032;28;20055;-78
2023/09/28 10:46:59;;;;;;;4.47;2.50;;;;;;;;;;5157910;27;20116;-78
2023/09/28 10:49:28;;;;;;;6.00;2.90;;;;;;;;;;5158878;27;20042;-79
2023/09/28 10:51:57;;;;;;;5.68;2.63;;;;;;;;;;5157645;27;20081;-77
2023/09/28 10:54:27;;;;;;;4.07;2.60;;;;;;;;;;5154201;27;20055;-78
2023/09/28 10:56:54;;;;;;;4.63;2.53;;;;;;;;;;5144888;27;20106;-78
2023/09/28 10:59:21;;;;;;;6.32;2.22;;;;;;;;;;5143540;27;20050;-77
2023/09/28 11:01:48;;;;;;;5.47;2.50;;;;;;;;;;5145118;27;20039;-79
2023/09/28 11:04:16;;;;;;;5.70;2.45;;;;;;;;;;5145140;27;20078;-78
2023/09/28 11:06:44;;;;;;;3.92;2.10;;;;;;;;;;5144840;27;20050;-80
2023/09/28 11:09:14;;;;;;;5.10;2.42;;;;;;;;;;5141433;27;20051;-78
2023/09/28 11:11:41;;;;;;;4.57;2.30;;;;;;;;;;5142806;27;20173;-77
2023/09/28 11:14:07;;;;;;;4.03;2.20;;;;;;;;;;5119824;27;20132;-75
2023/09/28 11:16:35;;;;;;;8.45;2.30;;;;;;;;;;5105115;28;20092;-78
2023/09/28 11:19:03;;;;;;;5.68;2.42;;;;;;;;;;5125319;27;20239;-78
2023/09/28 11:21:30;;;;;;;4.15;2.00;;;;;;;;;;5139730;27;20126;-78
2023/09/28 11:23:57;;;;;;;3.30;2.08;;;;;;;;;;5141205;27;20062;-78
2023/09/28 11:26:24;;;;;;;4.60;2.13;;;;;;;;;;5117440;28;20054;-82
2023/09/28 11:28:54;;;;;;;5.10;2.30;;;;;;;;;;5119533;28;20135;-79
2023/09/28 11:31:21;;;;;;;3.30;2.00;;;;;;;;;;5118343;28;20385;-80
2023/09/28 11:33:49;;;;;;;3.83;2.03;;;;;;;;;;5119405;28;20044;-80
2023/09/28 11:36:21;;;;;;;4.32;2.20;;;;;;;;;;5116919;28;20121;-81
2023/09/28 11:38:49;;;;;;;4.43;1.67;;;;;;;;;;5119017;28;20078;-81
2023/09/28 11:41:16;;;;;;;4.82;2.08;;;;;;;;;;5117794;28;20067;-81
2023/09/28 11:44:01;;;;;;;3.63;1.80;;;;;;;;;;5119189;28;20109;-81
2023/09/28 11:46:31;;;;;;;4.65;1.90;;;;;;;;;;5115286;28;20051;-80
2023/09/28 11:49:13;;;;;;;4.45;1.80;;;;;;;;;;5112885;28;20083;-81
2023/09/28 11:51:41;;;;;;;2.78;1.77;;;;;;;;;;5117498;28;20049;-81
2023/09/28 11:54:12;;;;;;;3.40;1.60;;;;;;;;;;5114689;28;20071;-78
2023/09/28 11:56:44;;;;;;;3.65;2.00;;;;;;;;;;5117316;28;20044;-79
2023/09/28 11:59:17;;;;;;;4.28;1.92;;;;;;;;;;5116623;28;20179;-79
2023/09/28 12:01:45;;;;;;;3.65;1.75;;;;;;;;;;5120765;28;20066;-81
2023/09/28 12:04:13;;;;;;;3.55;2.00;;;;;;;;;;5114143;28;20051;-79
2023/09/28 12:06:40;;;;;;;3.25;1.77;;;;;;;;;;5116750;28;20055;-81
2023/09/28 12:09:08;;;;;;;3.60;1.67;;;;;;;;;;5121658;28;20407;-78
2023/09/28 12:11:42;;;;;;;4.07;1.77;;;;;;;;;;5122193;28;20065;-79
2023/09/28 12:14:09;;;;;;;3.42;1.70;;;;;;;;;;5116904;28;20457;-80
2023/09/28 12:16:36;;;;;;;2.85;1.75;;;;;;;;;;5112714;28;20444;-81
2023/09/28 12:19:03;;;;;;;3.25;1.70;;;;;;;;;;5113488;28;20089;-78
2023/09/28 12:21:30;;;;;;;2.97;1.77;;;;;;;;;;5093271;28;20495;-77
2023/09/28 12:23:58;;;;;;;3.53;1.70;;;;;;;;;;5112923;28;20351;-77
2023/09/28 12:26:25;;;;;;;2.65;1.58;;;;;;;;;;5112611;28;20491;-80
2023/09/28 12:28:51;;;;;;;3.92;1.50;;;;;;;;;;5112433;28;20711;-80
2023/09/28 12:31:23;;;;;;;3.45;1.80;;;;;;;;;;5110747;28;20241;-80
2023/09/28 12:33:50;;;;;;;2.38;1.48;;;;;;;;;;5110601;28;20055;-79
2023/09/28 12:36:16;;;;;;;5.28;1.70;;;;;;;;;;5111997;28;20044;-78
2023/09/28 12:38:43;;;;;;;3.95;1.60;;;;;;;;;;5111071;28;20122;-77
2023/09/28 12:41:11;;;;;;;3.40;1.80;;;;;;;;;;5110628;28;20484;-80
2023/09/28 12:43:38;;;;;;;3.83;1.70;;;;;;;;;;5114788;28;20091;-79
2023/09/28 12:46:09;;;;;;;3.55;2.00;;;;;;;;;;5112433;28;20046;-80
2023/09/28 12:48:36;;;;;;;5.05;1.90;;;;;;;;;;5114599;28;20051;-81
2023/09/28 12:51:03;;;;;;;3.10;1.60;;;;;;;;;;5122013;27;20118;-77
2023/09/28 12:53:33;;;;;;;2.67;1.60;;;;;;;;;;5111491;28;20051;-79
2023/09/28 12:55:59;;;;;;;6.38;1.63;;;;;;;;;;5124597;27;20127;-80
2023/09/28 12:58:26;;;;;;;2.78;1.48;;;;;;;;;;5129611;27;20044;-80
2023/09/28 13:00:55;;;;;;;4.47;1.42;;;;;;;;;;5105200;28;20043;-81
2023/09/28 13:03:22;;;;;;;3.30;1.60;;;;;;;;;;5120998;28;20047;-80
2023/09/28 13:05:50;;;;;;;2.80;1.42;;;;;;;;;;5121034;28;20382;-81
2023/09/28 13:08:17;;;;;;;2.80;1.45;;;;;;;;;;5127182;27;20047;-82
2023/09/28 13:10:44;;;;;;;4.55;1.70;;;;;;;;;;5140866;27;20141;-78
2023/09/28 13:13:11;;;;;;;2.80;1.38;;;;;;;;;;5130630;27;20061;-81
2023/09/28 13:15:39;;;;;;;3.97;1.52;;;;;;;;;;5120657;28;20141;-81
2023/09/28 13:18:08;;;;;;;1.95;1.30;;;;;;;;;;5109525;28;85439;-78
2023/09/28 13:20:42;;;;;;;4.88;1.40;;;;;;;;;;5069873;28;20044;-82
2023/09/28 13:23:09;;;;;;;2.00;1.30;;;;;;;;;;5079469;28;20052;-77
2023/09/28 13:25:38;;;;;;;2.72;1.20;;;;;;;;;;5080513;28;20056;-79
2023/09/28 13:28:08;;;;;;;3.42;1.50;;;;;;;;;;5083936;28;20048;-79
2023/09/28 13:30:38;;;;;;;3.00;1.40;;;;;;;;;;5087334;28;20048;-80
2023/09/28 13:33:06;;;;;;;3.53;1.48;;;;;;;;;;5080111;28;20082;-81
2023/09/28 13:35:34;;;;;;;2.88;1.40;;;;;;;;;;5079942;28;20236;-78
2023/09/28 13:38:02;;;;;;;2.38;1.40;;;;;;;;;;5078186;28;20244;-77
2023/09/28 13:40:34;;;;;;;5.38;1.42;;;;;;;;;;5078757;28;20332;-83
2023/09/28 13:43:04;;;;;;;1.88;1.25;;;;;;;;;;5079781;28;20117;-77
2023/09/28 13:45:31;;;;;;;3.35;1.48;;;;;;;;;;5078879;28;20048;-83
2023/09/28 13:47:58;;;;;;;4.38;1.33;;;;;;;;;;5072905;28;20102;-82
2023/09/28 13:50:29;;;;;;;1.15;0.98;;;;;;;;;;5071196;28;20445;-83
2023/09/28 13:52:55;;;;;;;3.40;1.35;;;;;;;;;;5070176;28;20126;-81
2023/09/28 13:55:23;;;;;;;2.28;1.30;;;;;;;;;;5077531;28;20055;-83
2023/09/28 13:57:50;;;;;;;2.17;1.20;;;;;;;;;;5075348;28;20059;-86
2023/09/28 14:02:58;;;;;;;1.67;1.00;;;;;;;;;;5071294;28;20057;-77
2023/09/28 14:05:26;;;;;;;1.52;1.08;;;;;;;;;;5067834;28;20083;-77
2023/09/28 14:07:56;;;;;;;2.08;1.13;;;;;;;;;;5067620;28;20055;-77
2023/09/28 14:10:23;;;;;;;1.63;1.10;;;;;;;;;;5050119;28;20044;-76
2023/09/28 14:12:50;;;;;;;4.60;1.15;;;;;;;;;;5068270;28;20128;-79
2023/09/28 14:15:18;;;;;;;1.90;1.20;;;;;;;;;;5068193;28;20088;-77
2023/09/28 14:17:47;;;;;;;1.90;1.20;;;;;;;;;;5068310;28;20133;-76
2023/09/28 14:20:18;;;;;;;1.83;1.00;;;;;;;;;;5068222;28;20053;-79
2023/09/28 14:22:47;;;;;;;2.65;0.95;;;;;;;;;;5067641;28;20045;-77
2023/09/28 14:25:15;;;;;;;3.08;1.30;;;;;;;;;;5068018;28;20090;-76
2023/09/28 14:27:43;;;;;;;2.85;1.00;;;;;;;;;;5067677;28;20447;-78
2023/09/28 14:30:11;;;;;;;3.08;1.17;;;;;;;;;;5069564;28;20047;-75
2023/09/28 14:32:37;;;;;;;1.25;0.93;;;;;;;;;;5072297;28;20067;-75
2023/09/28 14:35:05;;;;;;;2.47;1.10;;;;;;;;;;5072068;28;20127;-79
2023/09/28 14:37:32;;;;;;;1.77;1.10;;;;;;;;;;5072039;28;20082;-79
2023/09/28 14:40:00;;;;;;;4.80;1.00;;;;;;;;;;5070897;28;20059;-77
2023/09/28 14:42:27;;;;;;;4.72;1.20;;;;;;;;;;5071836;28;20044;-76
2023/09/28 14:44:54;;;;;;;2.40;1.00;;;;;;;;;;5071227;28;20476;-77
2023/09/28 14:47:20;;;;;;;1.73;0.90;;;;;;;;;;5071705;28;20246;-77
2023/09/28 14:49:47;;;;;;;2.08;1.00;;;;;;;;;;5071348;28;20477;-78
2023/09/28 14:52:14;;;;;;;1.70;0.98;;;;;;;;;;5071386;28;20489;-78
2023/09/28 14:54:41;;;;;;;1.63;1.05;;;;;;;;;;5070843;28;20059;-76